sensor_id;sensor_type;location;lat;lon;timestamp;pressure;altitude;pressure_sealevel;temperature;humidity
77003;BME280;65939;50.060;14.288;2024-03-02T00:01:56;96261.19;;;9.75;99.73
77003;BME280;65939;50.060;14.288;2024-03-02T00:03:57;96262.81;;;9.76;99.73
77003;BME280;65939;50.060;14.288;2024-03-02T00:05:58;96262.97;;;9.74;99.78
77003;BME280;65939;50.060;14.288;2024-03-02T00:07:59;96262.16;;;9.74;99.78
77003;BME280;65939;50.060;14.288;2024-03-02T00:10:00;96259.53;;;9.74;100.00
77003;BME280;65939;50.060;14.288;2024-03-02T00:12:03;96263.94;;;9.73;99.92
77003;BME280;65939;50.060;14.288;2024-03-02T00:14:03;96264.13;;;9.72;100.00
77003;BME280;65939;50.060;14.288;2024-03-02T00:16:04;96259.72;;;9.72;100.00
77003;BME280;65939;50.060;14.288;2024-03-02T00:18:06;96260.53;;;9.73;99.88
77003;BME280;65939;50.060;14.288;2024-03-02T00:20:09;96261.53;;;9.72;100.00
77003;BME280;65939;50.060;14.288;2024-03-02T00:22:11;96251.91;;;9.72;99.98
77003;BME280;65939;50.060;14.288;2024-03-02T00:24:31;96263.94;;;9.73;99.69
77003;BME280;65939;50.060;14.288;2024-03-02T00:26:33;96254.97;;;9.76;99.37
77003;BME280;65939;50.060;14.288;2024-03-02T00:28:36;96261.00;;;9.76;99.19
77003;BME280;65939;50.060;14.288;2024-03-02T00:32:56;96253.53;;;9.73;99.60
77003;BME280;65939;50.060;14.288;2024-03-02T00:34:57;96254.53;;;9.72;99.48
77003;BME280;65939;50.060;14.288;2024-03-02T00:36:58;96250.31;;;9.71;99.19
77003;BME280;65939;50.060;14.288;2024-03-02T00:39:00;96252.06;;;9.71;99.18
77003;BME280;65939;50.060;14.288;2024-03-02T00:41:06;96256.47;;;9.70;99.31
77003;BME280;65939;50.060;14.288;2024-03-02T00:45:41;96250.47;;;9.70;98.88
77003;BME280;65939;50.060;14.288;2024-03-02T00:47:42;96246.84;;;9.71;99.27
77003;BME280;65939;50.060;14.288;2024-03-02T00:49:42;96247.69;;;9.71;99.77
77003;BME280;65939;50.060;14.288;2024-03-02T00:51:46;96251.09;;;9.72;99.06
77003;BME280;65939;50.060;14.288;2024-03-02T00:53:50;96245.91;;;9.72;99.00
77003;BME280;65939;50.060;14.288;2024-03-02T00:55:51;96245.91;;;9.72;99.25
77003;BME280;65939;50.060;14.288;2024-03-02T00:57:52;96239.03;;;9.71;98.47
77003;BME280;65939;50.060;14.288;2024-03-02T00:59:53;96244.25;;;9.71;99.29
77003;BME280;65939;50.060;14.288;2024-03-02T01:01:54;96252.25;;;9.69;99.19
77003;BME280;65939;50.060;14.288;2024-03-02T01:03:54;96241.38;;;9.66;98.92
77003;BME280;65939;50.060;14.288;2024-03-02T01:05:55;96252.78;;;9.65;99.19
77003;BME280;65939;50.060;14.288;2024-03-02T01:07:56;96254.59;;;9.64;98.71
77003;BME280;65939;50.060;14.288;2024-03-02T01:09:57;96253.75;;;9.64;99.25
77003;BME280;65939;50.060;14.288;2024-03-02T01:11:57;96253.75;;;9.64;99.44
77003;BME280;65939;50.060;14.288;2024-03-02T01:13:58;96257.19;;;9.64;99.36
77003;BME280;65939;50.060;14.288;2024-03-02T01:16:00;96258.00;;;9.65;99.14
77003;BME280;65939;50.060;14.288;2024-03-02T01:18:02;96260.63;;;9.65;99.28
77003;BME280;65939;50.060;14.288;2024-03-02T01:20:03;96262.56;;;9.63;99.22
77003;BME280;65939;50.060;14.288;2024-03-02T01:22:05;96262.56;;;9.63;99.34
77003;BME280;65939;50.060;14.288;2024-03-02T01:24:05;96264.38;;;9.62;99.53
77003;BME280;65939;50.060;14.288;2024-03-02T01:26:06;96254.94;;;9.61;99.38
77003;BME280;65939;50.060;14.288;2024-03-02T01:28:07;96263.72;;;9.60;99.76
77003;BME280;65939;50.060;14.288;2024-03-02T01:30:09;96264.56;;;9.61;99.19
77003;BME280;65939;50.060;14.288;2024-03-02T01:32:09;96262.09;;;9.59;99.93
77003;BME280;65939;50.060;14.288;2024-03-02T01:34:10;96263.91;;;9.58;99.87
77003;BME280;65939;50.060;14.288;2024-03-02T01:36:13;96257.09;;;9.57;99.50
77003;BME280;65939;50.060;14.288;2024-03-02T01:38:13;96264.09;;;9.57;99.41
77003;BME280;65939;50.060;14.288;2024-03-02T01:40:14;96261.66;;;9.55;99.57
77003;BME280;65939;50.060;14.288;2024-03-02T01:42:15;96260.03;;;9.54;99.90
77003;BME280;65939;50.060;14.288;2024-03-02T01:44:16;96261.66;;;9.55;99.55
77003;BME280;65939;50.060;14.288;2024-03-02T01:46:17;96249.63;;;9.54;99.63
77003;BME280;65939;50.060;14.288;2024-03-02T01:48:18;96250.41;;;9.55;100.00
77003;BME280;65939;50.060;14.288;2024-03-02T01:50:31;96248.63;;;9.55;99.33
77003;BME280;65939;50.060;14.288;2024-03-02T01:52:32;96256.44;;;9.55;99.31
77003;BME280;65939;50.060;14.288;2024-03-02T01:54:34;96252.22;;;9.54;99.15
77003;BME280;65939;50.060;14.288;2024-03-02T01:56:35;96252.38;;;9.53;99.80
77003;BME280;65939;50.060;14.288;2024-03-02T01:58:36;96249.97;;;9.51;99.22
77003;BME280;65939;50.060;14.288;2024-03-02T02:00:37;96248.34;;;9.50;99.08
77003;BME280;65939;50.060;14.288;2024-03-02T02:02:37;96250.16;;;9.50;99.68
77003;BME280;65939;50.060;14.288;2024-03-02T02:04:38;96246.69;;;9.49;99.89
77003;BME280;65939;50.060;14.288;2024-03-02T02:06:39;96249.50;;;9.48;99.52
77003;BME280;65939;50.060;14.288;2024-03-02T02:08:39;96242.66;;;9.47;99.91
77003;BME280;65939;50.060;14.288;2024-03-02T02:10:40;96243.63;;;9.46;99.47
77003;BME280;65939;50.060;14.288;2024-03-02T02:12:41;96236.00;;;9.44;99.56
77003;BME280;65939;50.060;14.288;2024-03-02T02:14:47;96241.41;;;9.43;99.72
77003;BME280;65939;50.060;14.288;2024-03-02T02:16:49;96242.38;;;9.42;99.81
77003;BME280;65939;50.060;14.288;2024-03-02T02:18:49;96238.31;;;9.39;99.91
77003;BME280;65939;50.060;14.288;2024-03-02T02:20:50;96246.13;;;9.39;100.00
77003;BME280;65939;50.060;14.288;2024-03-02T02:23:01;96240.91;;;9.39;100.00
77003;BME280;65939;50.060;14.288;2024-03-02T02:25:02;96239.31;;;9.38;99.70
77003;BME280;65939;50.060;14.288;2024-03-02T02:27:03;96240.09;;;9.39;99.89
77003;BME280;65939;50.060;14.288;2024-03-02T02:29:04;96245.31;;;9.39;99.77
77003;BME280;65939;50.060;14.288;2024-03-02T02:31:05;96240.91;;;9.39;99.53
77003;BME280;65939;50.060;14.288;2024-03-02T02:33:06;96246.13;;;9.39;99.50
77003;BME280;65939;50.060;14.288;2024-03-02T02:35:06;96239.31;;;9.38;99.36
77003;BME280;65939;50.060;14.288;2024-03-02T02:37:07;96247.75;;;9.40;99.62
77003;BME280;65939;50.060;14.288;2024-03-02T02:39:12;96247.75;;;9.40;99.28
77003;BME280;65939;50.060;14.288;2024-03-02T02:41:14;96237.16;;;9.42;99.61
77003;BME280;65939;50.060;14.288;2024-03-02T02:43:14;96244.16;;;9.41;99.65
77003;BME280;65939;50.060;14.288;2024-03-02T02:45:15;96246.13;;;9.39;99.63
77003;BME280;65939;50.060;14.288;2024-03-02T02:47:16;96241.91;;;9.38;99.24
77003;BME280;65939;50.060;14.288;2024-03-02T02:49:16;96245.50;;;9.37;99.45
77003;BME280;65939;50.060;14.288;2024-03-02T02:51:17;96239.66;;;9.35;98.91
77003;BME280;65939;50.060;14.288;2024-03-02T02:53:18;96236.22;;;9.34;98.76
77003;BME280;65939;50.060;14.288;2024-03-02T02:55:19;96241.63;;;9.33;98.83
77003;BME280;65939;50.060;14.288;2024-03-02T02:57:20;96242.44;;;9.33;99.12
77003;BME280;65939;50.060;14.288;2024-03-02T02:59:21;96240.81;;;9.32;98.69
77003;BME280;65939;50.060;14.288;2024-03-02T03:01:21;96245.19;;;9.32;98.91
77003;BME280;65939;50.060;14.288;2024-03-02T03:03:22;96242.59;;;9.32;98.50
77003;BME280;65939;50.060;14.288;2024-03-02T03:05:22;96245.19;;;9.32;98.49
77003;BME280;65939;50.060;14.288;2024-03-02T03:07:23;96247.19;;;9.30;98.46
77003;BME280;65939;50.060;14.288;2024-03-02T03:09:24;96248.00;;;9.30;99.17
77003;BME280;65939;50.060;14.288;2024-03-02T03:11:24;96241.97;;;9.30;98.35
77003;BME280;65939;50.060;14.288;2024-03-02T03:13:27;96238.72;;;9.28;98.40
77003;BME280;65939;50.060;14.288;2024-03-02T03:15:27;96255.97;;;9.29;98.42
77003;BME280;65939;50.060;14.288;2024-03-02T03:17:28;96245.91;;;9.26;98.45
77003;BME280;65939;50.060;14.288;2024-03-02T03:19:29;96245.91;;;9.26;98.77
77003;BME280;65939;50.060;14.288;2024-03-02T03:21:29;96246.06;;;9.24;98.56
77003;BME280;65939;50.060;14.288;2024-03-02T03:23:30;96242.66;;;9.24;98.38
77003;BME280;65939;50.060;14.288;2024-03-02T03:25:30;96249.84;;;9.22;98.91
77003;BME280;65939;50.060;14.288;2024-03-02T03:27:31;96243.81;;;9.21;98.66
77003;BME280;65939;50.060;14.288;2024-03-02T03:29:32;96248.19;;;9.21;98.49
77003;BME280;65939;50.060;14.288;2024-03-02T03:31:33;96250.81;;;9.21;98.47
77003;BME280;65939;50.060;14.288;2024-03-02T03:33:33;96250.66;;;9.22;98.59
77003;BME280;65939;50.060;14.288;2024-03-02T03:35:34;96255.06;;;9.22;98.51
77003;BME280;65939;50.060;14.288;2024-03-02T03:37:36;96254.06;;;9.23;98.21
77003;BME280;65939;50.060;14.288;2024-03-02T03:39:38;96254.06;;;9.23;98.34
77003;BME280;65939;50.060;14.288;2024-03-02T03:41:40;96256.66;;;9.23;98.26
77003;BME280;65939;50.060;14.288;2024-03-02T03:43:41;96252.44;;;9.22;98.62
77003;BME280;65939;50.060;14.288;2024-03-02T03:45:41;96250.66;;;9.22;98.71
77003;BME280;65939;50.060;14.288;2024-03-02T03:47:42;96258.47;;;9.22;98.49
77003;BME280;65939;50.060;14.288;2024-03-02T03:49:42;96255.06;;;9.22;97.96
77003;BME280;65939;50.060;14.288;2024-03-02T03:51:43;96254.06;;;9.23;98.02
77003;BME280;65939;50.060;14.288;2024-03-02T03:53:44;96246.25;;;9.23;98.51
77003;BME280;65939;50.060;14.288;2024-03-02T03:55:44;96245.25;;;9.24;97.93
77003;BME280;65939;50.060;14.288;2024-03-02T03:57:47;96253.25;;;9.22;97.94
77003;BME280;65939;50.060;14.288;2024-03-02T03:59:47;96259.28;;;9.23;98.07
77003;BME280;65939;50.060;14.288;2024-03-02T04:01:48;96256.03;;;9.21;97.55
77003;BME280;65939;50.060;14.288;2024-03-02T04:03:49;96255.41;;;9.19;98.43
77003;BME280;65939;50.060;14.288;2024-03-02T04:05:49;96256.34;;;9.18;98.15
77003;BME280;65939;50.060;14.288;2024-03-02T04:07:50;96258.97;;;9.18;98.23
77003;BME280;65939;50.060;14.288;2024-03-02T04:09:51;96258.81;;;9.19;98.29
77003;BME280;65939;50.060;14.288;2024-03-02T04:11:51;96258.97;;;9.18;97.83
77003;BME280;65939;50.060;14.288;2024-03-02T04:13:52;96269.38;;;9.18;98.40
77003;BME280;65939;50.060;14.288;2024-03-02T04:15:53;96263.22;;;9.19;97.68
77003;BME280;65939;50.060;14.288;2024-03-02T04:17:54;96267.44;;;9.20;97.37
77003;BME280;65939;50.060;14.288;2024-03-02T04:19:55;96269.03;;;9.21;97.82
77003;BME280;65939;50.060;14.288;2024-03-02T04:21:56;96268.06;;;9.22;97.71
77003;BME280;65939;50.060;14.288;2024-03-02T04:23:56;96271.66;;;9.21;98.06
77003;BME280;65939;50.060;14.288;2024-03-02T04:26:00;96274.91;;;9.23;97.95
77003;BME280;65939;50.060;14.288;2024-03-02T04:28:01;96279.31;;;9.22;97.23
77003;BME280;65939;50.060;14.288;2024-03-02T04:30:04;96278.50;;;9.22;97.85
77003;BME280;65939;50.060;14.288;2024-03-02T04:32:05;96283.69;;;9.22;97.21
77003;BME280;65939;50.060;14.288;2024-03-02T04:34:06;96278.84;;;9.19;97.32
77003;BME280;65939;50.060;14.288;2024-03-02T04:36:07;96279.78;;;9.18;97.19
77003;BME280;65939;50.060;14.288;2024-03-02T04:38:09;96286.19;;;9.15;97.38
77003;BME280;65939;50.060;14.288;2024-03-02T04:40:10;96287.31;;;9.13;97.58
77003;BME280;65939;50.060;14.288;2024-03-02T04:42:11;96285.72;;;9.11;97.49
77003;BME280;65939;50.060;14.288;2024-03-02T04:44:12;96293.06;;;9.08;97.24
77003;BME280;65939;50.060;14.288;2024-03-02T04:46:13;96290.59;;;9.06;96.90
77003;BME280;65939;50.060;14.288;2024-03-02T04:48:13;96291.59;;;9.05;97.30
77003;BME280;65939;50.060;14.288;2024-03-02T04:50:14;96289.16;;;9.04;97.45
77003;BME280;65939;50.060;14.288;2024-03-02T04:52:15;96286.72;;;9.02;97.10
77003;BME280;65939;50.060;14.288;2024-03-02T04:54:16;96292.91;;;9.01;96.88
77003;BME280;65939;50.060;14.288;2024-03-02T04:56:16;96294.72;;;9.01;97.52
77003;BME280;65939;50.060;14.288;2024-03-02T04:58:39;96299.91;;;9.01;96.68
77003;BME280;65939;50.060;14.288;2024-03-02T05:00:40;96300.25;;;8.98;97.27
77003;BME280;65939;50.060;14.288;2024-03-02T05:02:43;96307.41;;;8.96;96.95
77003;BME280;65939;50.060;14.288;2024-03-02T05:04:43;96308.59;;;8.93;97.08
77003;BME280;65939;50.060;14.288;2024-03-02T05:06:44;96309.53;;;8.92;97.08
77003;BME280;65939;50.060;14.288;2024-03-02T05:08:45;96317.53;;;8.91;96.65
77003;BME280;65939;50.060;14.288;2024-03-02T05:10:45;96318.53;;;8.90;96.94
77003;BME280;65939;50.060;14.288;2024-03-02T05:12:46;96316.72;;;8.90;96.87
77003;BME280;65939;50.060;14.288;2024-03-02T05:14:46;96313.31;;;8.90;96.99
77003;BME280;65939;50.060;14.288;2024-03-02T05:16:47;96315.91;;;8.90;97.09
77003;BME280;65939;50.060;14.288;2024-03-02T05:18:48;96313.94;;;8.92;96.65
77003;BME280;65939;50.060;14.288;2024-03-02T05:20:48;96313.13;;;8.91;96.10
77003;BME280;65939;50.060;14.288;2024-03-02T05:22:49;96313.31;;;8.90;96.12
77003;BME280;65939;50.060;14.288;2024-03-02T05:24:50;96320.28;;;8.89;96.28
77003;BME280;65939;50.060;14.288;2024-03-02T05:26:50;96316.72;;;8.90;96.39
77003;BME280;65939;50.060;14.288;2024-03-02T05:28:51;96315.09;;;8.89;96.81
77003;BME280;65939;50.060;14.288;2024-03-02T05:30:52;96327.28;;;8.88;96.28
77003;BME280;65939;50.060;14.288;2024-03-02T05:32:52;96326.47;;;8.88;96.97
77003;BME280;65939;50.060;14.288;2024-03-02T05:34:53;96336.91;;;8.88;96.33
77003;BME280;65939;50.060;14.288;2024-03-02T05:36:54;96337.88;;;8.87;96.34
77003;BME280;65939;50.060;14.288;2024-03-02T05:38:54;96338.88;;;8.86;96.43
77003;BME280;65939;50.060;14.288;2024-03-02T05:40:55;96344.06;;;8.86;96.29
77003;BME280;65939;50.060;14.288;2024-03-02T05:42:56;96349.28;;;8.86;95.97
77003;BME280;65939;50.060;14.288;2024-03-02T05:44:56;96353.66;;;8.85;95.60
77003;BME280;65939;50.060;14.288;2024-03-02T05:46:57;96353.03;;;8.83;96.31
77003;BME280;65939;50.060;14.288;2024-03-02T05:48:59;96360.03;;;8.83;96.14
77003;BME280;65939;50.060;14.288;2024-03-02T05:51:00;96354.00;;;8.82;96.83
77003;BME280;65939;50.060;14.288;2024-03-02T05:53:01;96361.97;;;8.81;95.95
77003;BME280;65939;50.060;14.288;2024-03-02T05:55:02;96363.59;;;8.82;96.12
77003;BME280;65939;50.060;14.288;2024-03-02T05:57:03;96368.31;;;8.78;95.45
77003;BME280;65939;50.060;14.288;2024-03-02T05:59:17;96365.72;;;8.78;96.06
77003;BME280;65939;50.060;14.288;2024-03-02T06:01:18;96364.91;;;8.78;95.50
77003;BME280;65939;50.060;14.288;2024-03-02T06:03:18;96367.50;;;8.78;95.38
77003;BME280;65939;50.060;14.288;2024-03-02T06:05:19;96367.50;;;8.78;95.49
77003;BME280;65939;50.060;14.288;2024-03-02T06:07:20;96371.09;;;8.77;95.49
77003;BME280;65939;50.060;14.288;2024-03-02T06:09:20;96373.88;;;8.75;95.30
77003;BME280;65939;50.060;14.288;2024-03-02T06:11:21;96375.63;;;8.75;95.40
77003;BME280;65939;50.060;14.288;2024-03-02T06:13:22;96375.50;;;8.76;95.23
77003;BME280;65939;50.060;14.288;2024-03-02T06:15:23;96377.91;;;8.78;95.07
77003;BME280;65939;50.060;14.288;2024-03-02T06:17:24;96384.09;;;8.77;95.17
77003;BME280;65939;50.060;14.288;2024-03-02T06:19:24;96384.09;;;8.77;94.78
77003;BME280;65939;50.060;14.288;2024-03-02T06:21:25;96378.91;;;8.77;94.76
77003;BME280;65939;50.060;14.288;2024-03-02T06:23:27;96383.13;;;8.78;94.49
77003;BME280;65939;50.060;14.288;2024-03-02T06:25:27;96378.72;;;8.78;94.59
77003;BME280;65939;50.060;14.288;2024-03-02T06:27:28;96381.97;;;8.80;94.66
77003;BME280;65939;50.060;14.288;2024-03-02T06:29:29;96374.97;;;8.81;94.01
77003;BME280;65939;50.060;14.288;2024-03-02T06:31:29;96385.41;;;8.81;94.62
77003;BME280;65939;50.060;14.288;2024-03-02T06:33:30;96389.63;;;8.82;94.76
77003;BME280;65939;50.060;14.288;2024-03-02T06:35:31;96382.47;;;8.84;94.29
77003;BME280;65939;50.060;14.288;2024-03-02T06:37:31;96389.28;;;8.85;94.57
77003;BME280;65939;50.060;14.288;2024-03-02T06:39:32;96385.72;;;8.86;94.99
77003;BME280;65939;50.060;14.288;2024-03-02T06:41:34;96383.94;;;8.86;94.21
77003;BME280;65939;50.060;14.288;2024-03-02T06:43:35;96390.56;;;8.89;94.57
77003;BME280;65939;50.060;14.288;2024-03-02T06:45:36;96382.75;;;8.89;94.31
77003;BME280;65939;50.060;14.288;2024-03-02T06:47:37;96384.41;;;8.90;94.55
77003;BME280;65939;50.060;14.288;2024-03-02T06:49:37;96393.03;;;8.91;93.91
77003;BME280;65939;50.060;14.288;2024-03-02T06:51:39;96393.81;;;8.91;94.10
77003;BME280;65939;50.060;14.288;2024-03-02T06:53:39;96394.63;;;8.92;93.60
77003;BME280;65939;50.060;14.288;2024-03-02T06:55:40;96399.03;;;8.91;93.58
77003;BME280;65939;50.060;14.288;2024-03-02T06:57:41;96403.25;;;8.92;93.91
77003;BME280;65939;50.060;14.288;2024-03-02T06:59:42;96401.47;;;8.93;93.47
77003;BME280;65939;50.060;14.288;2024-03-02T07:01:42;96410.91;;;8.94;94.31
77003;BME280;65939;50.060;14.288;2024-03-02T07:03:44;96403.91;;;8.94;93.38
77003;BME280;65939;50.060;14.288;2024-03-02T07:05:45;96402.94;;;8.95;93.73
77003;BME280;65939;50.060;14.288;2024-03-02T07:07:45;96402.78;;;8.97;93.26
77003;BME280;65939;50.060;14.288;2024-03-02T07:09:46;96409.41;;;8.99;93.51
77003;BME280;65939;50.060;14.288;2024-03-02T07:11:48;96406.81;;;8.99;93.33
77003;BME280;65939;50.060;14.288;2024-03-02T07:13:49;96416.41;;;8.99;92.81
77003;BME280;65939;50.060;14.288;2024-03-02T07:15:50;96420.00;;;8.98;92.94
77003;BME280;65939;50.060;14.288;2024-03-02T07:18:03;96421.81;;;8.97;92.77
77003;BME280;65939;50.060;14.288;2024-03-02T07:20:05;96417.75;;;8.95;92.93
77003;BME280;65939;50.060;14.288;2024-03-02T07:22:07;96417.91;;;8.93;92.84
77003;BME280;65939;50.060;14.288;2024-03-02T07:24:08;96423.13;;;8.93;92.72
77003;BME280;65939;50.060;14.288;2024-03-02T07:26:13;96431.88;;;8.92;92.93
77003;BME280;65939;50.060;14.288;2024-03-02T07:28:15;96434.66;;;8.91;93.10
77003;BME280;65939;50.060;14.288;2024-03-02T07:30:16;96442.00;;;8.87;92.56
77003;BME280;65939;50.060;14.288;2024-03-02T07:32:17;96445.59;;;8.86;92.89
77003;BME280;65939;50.060;14.288;2024-03-02T07:34:17;96446.53;;;8.85;93.08
77003;BME280;65939;50.060;14.288;2024-03-02T07:36:18;96441.53;;;8.83;92.44
77003;BME280;65939;50.060;14.288;2024-03-02T07:38:20;96446.06;;;8.81;93.00
77003;BME280;65939;50.060;14.288;2024-03-02T07:40:20;96451.44;;;8.80;92.66
77003;BME280;65939;50.060;14.288;2024-03-02T07:42:21;96458.44;;;8.79;92.90
77003;BME280;65939;50.060;14.288;2024-03-02T07:44:22;96461.03;;;8.79;92.62
77003;BME280;65939;50.060;14.288;2024-03-02T07:46:23;96463.66;;;8.79;92.33
77003;BME280;65939;50.060;14.288;2024-03-02T07:48:25;96455.03;;;8.79;92.90
77003;BME280;65939;50.060;14.288;2024-03-02T07:50:26;96460.88;;;8.81;93.05
77003;BME280;65939;50.060;14.288;2024-03-02T07:52:27;96455.34;;;8.84;92.81
77003;BME280;65939;50.060;14.288;2024-03-02T07:54:28;96455.63;;;8.89;93.30
77003;BME280;65939;50.060;14.288;2024-03-02T07:56:29;96457.78;;;8.94;92.67
77003;BME280;65939;50.060;14.288;2024-03-02T07:58:30;96446.66;;;9.00;93.18
77003;BME280;65939;50.060;14.288;2024-03-02T08:00:31;96449.09;;;9.09;93.31
77003;BME280;65939;50.060;14.288;2024-03-02T08:02:32;96441.91;;;9.20;93.51
77003;BME280;65939;50.060;14.288;2024-03-02T08:04:33;96445.13;;;9.30;93.49
77003;BME280;65939;50.060;14.288;2024-03-02T08:06:33;96441.34;;;9.41;93.12
77003;BME280;65939;50.060;14.288;2024-03-02T08:08:34;96443.56;;;9.52;92.62
77003;BME280;65939;50.060;14.288;2024-03-02T08:10:34;96440.31;;;9.58;92.30
77003;BME280;65939;50.060;14.288;2024-03-02T08:12:36;96437.66;;;9.66;92.60
77003;BME280;65939;50.060;14.288;2024-03-02T08:14:36;96442.81;;;9.74;91.58
77003;BME280;65939;50.060;14.288;2024-03-02T08:16:37;96434.97;;;9.82;92.11
77003;BME280;65939;50.060;14.288;2024-03-02T08:18:38;96451.19;;;9.93;92.75
77003;BME280;65939;50.060;14.288;2024-03-02T08:20:38;96448.34;;;10.02;92.40
77003;BME280;65939;50.060;14.288;2024-03-02T08:22:40;96446.31;;;10.13;92.17
77003;BME280;65939;50.060;14.288;2024-03-02T08:24:41;96446.25;;;10.21;91.68
77003;BME280;65939;50.060;14.288;2024-03-02T08:26:42;96444.47;;;10.29;91.43
77003;BME280;65939;50.060;14.288;2024-03-02T08:28:43;96446.00;;;10.39;90.96
77003;BME280;65939;50.060;14.288;2024-03-02T08:30:43;96441.19;;;10.50;90.42
77003;BME280;65939;50.060;14.288;2024-03-02T08:32:44;96449.59;;;10.61;89.95
77003;BME280;65939;50.060;14.288;2024-03-02T08:34:45;96449.16;;;10.72;89.57
77003;BME280;65939;50.060;14.288;2024-03-02T08:36:46;96447.94;;;10.83;89.82
77003;BME280;65939;50.060;14.288;2024-03-02T08:38:51;96452.44;;;10.89;89.32
77003;BME280;65939;50.060;14.288;2024-03-02T08:40:52;96457.13;;;10.93;88.60
77003;BME280;65939;50.060;14.288;2024-03-02T08:42:52;96463.97;;;10.94;88.16
77003;BME280;65939;50.060;14.288;2024-03-02T08:44:53;96449.91;;;10.95;89.00
77003;BME280;65939;50.060;14.288;2024-03-02T08:46:54;96455.78;;;10.97;88.05
77003;BME280;65939;50.060;14.288;2024-03-02T08:48:54;96459.03;;;10.99;87.22
77003;BME280;65939;50.060;14.288;2024-03-02T08:50:55;96460.66;;;11.00;87.24
77003;BME280;65939;50.060;14.288;2024-03-02T08:52:56;96462.09;;;11.03;87.66
77003;BME280;65939;50.060;14.288;2024-03-02T08:54:56;96462.56;;;11.07;87.94
77003;BME280;65939;50.060;14.288;2024-03-02T08:56:57;96457.59;;;11.12;87.91
77003;BME280;65939;50.060;14.288;2024-03-02T08:58:58;96450.00;;;11.17;86.03
77003;BME280;65939;50.060;14.288;2024-03-02T09:00:59;96464.16;;;11.22;86.07
77003;BME280;65939;50.060;14.288;2024-03-02T09:02:59;96461.00;;;11.27;86.65
77003;BME280;65939;50.060;14.288;2024-03-02T09:05:00;96466.69;;;11.31;86.19
77003;BME280;65939;50.060;14.288;2024-03-02T09:07:01;96476.88;;;11.40;86.31
77003;BME280;65939;50.060;14.288;2024-03-02T09:09:02;96466.31;;;11.48;87.12
77003;BME280;65939;50.060;14.288;2024-03-02T09:11:04;96461.81;;;11.57;86.57
77003;BME280;65939;50.060;14.288;2024-03-02T09:13:05;96456.31;;;11.67;85.31
77003;BME280;65939;50.060;14.288;2024-03-02T09:15:05;96458.38;;;11.71;85.14
77003;BME280;65939;50.060;14.288;2024-03-02T09:17:06;96459.25;;;11.79;85.08
77003;BME280;65939;50.060;14.288;2024-03-02T09:19:08;96453.47;;;11.83;84.11
77003;BME280;65939;50.060;14.288;2024-03-02T09:21:09;96456.91;;;11.84;83.58
77003;BME280;65939;50.060;14.288;2024-03-02T09:23:10;96453.34;;;11.85;83.85
77003;BME280;65939;50.060;14.288;2024-03-02T09:25:11;96464.59;;;11.85;83.38
77003;BME280;65939;50.060;14.288;2024-03-02T09:27:12;96453.94;;;11.87;83.54
77003;BME280;65939;50.060;14.288;2024-03-02T09:29:12;96454.81;;;11.94;82.61
77003;BME280;65939;50.060;14.288;2024-03-02T09:31:13;96457.16;;;12.04;82.15
77003;BME280;65939;50.060;14.288;2024-03-02T09:33:14;96460.28;;;12.14;81.77
77003;BME280;65939;50.060;14.288;2024-03-02T09:35:14;96448.06;;;12.21;81.98
77003;BME280;65939;50.060;14.288;2024-03-02T09:37:15;96450.94;;;12.26;81.45
77003;BME280;65939;50.060;14.288;2024-03-02T09:39:16;96454.34;;;12.27;81.60
77003;BME280;65939;50.060;14.288;2024-03-02T09:41:18;96462.03;;;12.28;79.73
77003;BME280;65939;50.060;14.288;2024-03-02T09:43:19;96453.81;;;12.31;79.89
77003;BME280;65939;50.060;14.288;2024-03-02T09:45:23;96456.03;;;12.34;79.24
77003;BME280;65939;50.060;14.288;2024-03-02T09:47:24;96454.41;;;12.33;79.78
77003;BME280;65939;50.060;14.288;2024-03-02T09:49:25;96449.56;;;12.30;79.33
77003;BME280;65939;50.060;14.288;2024-03-02T09:51:26;96452.88;;;12.17;78.85
77003;BME280;65939;50.060;14.288;2024-03-02T09:53:31;96446.81;;;12.17;79.99
77003;BME280;65939;50.060;14.288;2024-03-02T09:55:32;96444.44;;;12.22;80.11
77003;BME280;65939;50.060;14.288;2024-03-02T09:57:33;96443.28;;;12.25;79.13
77003;BME280;65939;50.060;14.288;2024-03-02T09:59:34;96441.19;;;12.20;80.24
77003;BME280;65939;50.060;14.288;2024-03-02T10:01:35;96437.97;;;12.18;80.24
77003;BME280;65939;50.060;14.288;2024-03-02T10:03:38;96438.72;;;12.12;79.70
77003;BME280;65939;50.060;14.288;2024-03-02T10:05:39;96442.13;;;12.12;80.37
77003;BME280;65939;50.060;14.288;2024-03-02T10:07:40;96446.81;;;12.17;79.56
77003;BME280;65939;50.060;14.288;2024-03-02T10:09:45;96438.59;;;12.20;80.24
77003;BME280;65939;50.060;14.288;2024-03-02T10:11:46;96442.78;;;12.14;79.57
77003;BME280;65939;50.060;14.288;2024-03-02T10:13:46;96447.19;;;12.14;79.21
77003;BME280;65939;50.060;14.288;2024-03-02T10:15:47;96445.56;;;12.13;79.03
77003;BME280;65939;50.060;14.288;2024-03-02T10:17:48;96444.09;;;12.25;79.21
77003;BME280;65939;50.060;14.288;2024-03-02T10:19:48;96440.97;;;12.36;78.40
77003;BME280;65939;50.060;14.288;2024-03-02T10:21:50;96449.31;;;12.46;79.75
77003;BME280;65939;50.060;14.288;2024-03-02T10:23:51;96444.38;;;12.58;79.00
77003;BME280;65939;50.060;14.288;2024-03-02T10:25:51;96447.31;;;12.70;79.42
77003;BME280;65939;50.060;14.288;2024-03-02T10:27:52;96446.41;;;12.84;79.47
77003;BME280;65939;50.060;14.288;2024-03-02T10:29:54;96445.66;;;12.97;79.37
77003;BME280;65939;50.060;14.288;2024-03-02T10:31:54;96453.81;;;13.09;78.46
77003;BME280;65939;50.060;14.288;2024-03-02T10:33:57;96451.47;;;13.21;78.22
77003;BME280;65939;50.060;14.288;2024-03-02T10:35:58;96444.09;;;13.31;77.05
77003;BME280;65939;50.060;14.288;2024-03-02T10:37:59;96444.94;;;13.38;76.92
77003;BME280;65939;50.060;14.288;2024-03-02T10:40:06;96442.97;;;13.47;76.54
77003;BME280;65939;50.060;14.288;2024-03-02T10:42:09;96440.97;;;13.55;75.41
77003;BME280;65939;50.060;14.288;2024-03-02T10:44:10;96433.56;;;13.65;76.06
77003;BME280;65939;50.060;14.288;2024-03-02T10:46:11;96432.38;;;13.75;75.45